createdAt,value
2023-04-15T00:00:59.622Z,17.73
2023-04-15T00:03:28.659Z,17.00
2023-04-15T00:05:57.532Z,16.13
2023-04-15T00:08:26.017Z,17.05
2023-04-15T00:10:56.702Z,17.58
2023-04-15T00:13:25.058Z,20.52
2023-04-15T00:15:53.339Z,16.75
2023-04-15T00:18:21.907Z,20.67
2023-04-15T00:20:50.179Z,18.75
2023-04-15T00:23:18.441Z,17.23
2023-04-15T00:25:46.955Z,18.60
2023-04-15T00:28:17.570Z,19.92
2023-04-15T00:30:46.119Z,17.90
2023-04-15T00:33:14.837Z,18.33
2023-04-15T00:35:43.247Z,18.23
2023-04-15T00:38:11.751Z,20.20
2023-04-15T00:40:40.173Z,19.65
2023-04-15T00:43:08.374Z,20.25
2023-04-15T00:45:38.367Z,18.88
2023-04-15T00:48:07.274Z,20.00
2023-04-15T00:50:35.607Z,19.92
2023-04-15T00:53:03.870Z,20.40
2023-04-15T00:55:33.858Z,20.95
2023-04-15T00:58:02.108Z,19.25
2023-04-15T01:00:31.406Z,21.00
2023-04-15T01:03:02.770Z,19.30
2023-04-15T01:05:31.657Z,19.17
2023-04-15T01:07:59.949Z,20.90
2023-04-15T01:10:28.535Z,20.48
2023-04-15T01:12:56.963Z,21.45
2023-04-15T01:15:27.520Z,21.50
2023-04-15T01:17:55.868Z,23.05
2023-04-15T01:20:25.982Z,20.58
2023-04-15T01:22:56.454Z,22.67
2023-04-15T01:25:34.467Z,23.00
2023-04-15T01:28:03.160Z,21.63
2023-04-15T01:30:35.457Z,21.38
2023-04-15T01:33:04.049Z,23.77
2023-04-15T01:35:32.386Z,23.67
2023-04-15T01:38:06.240Z,22.45
2023-04-15T01:40:36.385Z,22.23
2023-04-15T01:43:04.825Z,23.77
2023-04-15T01:45:32.999Z,22.60
2023-04-15T01:48:01.332Z,22.00
2023-04-15T01:50:29.624Z,23.45
2023-04-15T01:52:57.965Z,23.42
2023-04-15T01:55:26.221Z,22.85
2023-04-15T01:57:56.183Z,22.88
2023-04-15T02:00:25.026Z,24.27
2023-04-15T02:02:54.123Z,24.58
2023-04-15T02:05:22.478Z,21.95
2023-04-15T02:07:50.729Z,23.13
2023-04-15T02:10:19.024Z,23.48
2023-04-15T02:12:47.170Z,24.27
2023-04-15T02:15:17.502Z,23.60
2023-04-15T02:17:51.222Z,24.88
2023-04-15T02:20:21.116Z,26.00
2023-04-15T02:22:49.551Z,26.00
2023-04-15T02:25:18.208Z,24.48
2023-04-15T02:27:46.398Z,25.25
2023-04-15T02:30:16.726Z,25.45
2023-04-15T02:32:45.321Z,24.75
2023-04-15T02:35:14.414Z,25.55
2023-04-15T02:37:45.684Z,23.83
2023-04-15T02:40:14.810Z,25.15
2023-04-15T02:42:44.244Z,23.17
2023-04-15T02:45:16.542Z,25.23
2023-04-15T02:47:46.914Z,24.75
2023-04-15T02:50:17.177Z,24.73
2023-04-15T02:52:45.862Z,24.23
2023-04-15T02:55:14.140Z,24.20
2023-04-15T02:57:42.909Z,25.00
2023-04-15T03:00:14.652Z,26.02
2023-04-15T03:02:48.026Z,24.73
2023-04-15T03:05:16.366Z,23.85
2023-04-15T03:07:52.234Z,23.38
2023-04-15T03:10:21.232Z,24.65
2023-04-15T03:12:49.860Z,24.90
2023-04-15T03:15:21.190Z,23.75
2023-04-15T03:17:53.974Z,25.85
2023-04-15T03:20:22.355Z,23.48
2023-04-15T03:22:50.634Z,24.30
2023-04-15T03:25:20.700Z,23.73
2023-04-15T03:27:49.138Z,26.10
2023-04-15T03:30:18.907Z,24.25
2023-04-15T03:32:47.608Z,24.25
2023-04-15T03:35:18.050Z,24.83
2023-04-15T03:37:46.514Z,24.33
2023-04-15T03:40:14.789Z,24.15
2023-04-15T03:42:42.997Z,25.27
2023-04-15T03:45:12.259Z,23.98
2023-04-15T03:47:40.528Z,23.85
2023-04-15T03:50:09.668Z,24.10
2023-04-15T03:52:39.721Z,23.95
2023-04-15T03:55:08.837Z,23.35
2023-04-15T03:57:39.417Z,24.13
2023-04-15T04:00:10.084Z,23.90
2023-04-15T04:02:41.517Z,23.15
2023-04-15T04:05:11.027Z,24.75
2023-04-15T04:07:40.704Z,22.50
2023-04-15T04:10:10.015Z,23.98
2023-04-15T04:12:38.145Z,23.95
2023-04-15T04:15:08.447Z,22.58
2023-04-15T04:17:36.775Z,23.40
2023-04-15T04:20:05.686Z,22.65
2023-04-15T04:22:38.609Z,22.70
2023-04-15T04:25:10.307Z,23.00
2023-04-15T04:27:38.857Z,22.58
2023-04-15T04:30:08.237Z,22.90
2023-04-15T04:32:36.486Z,22.38
2023-04-15T04:35:05.043Z,21.70
2023-04-15T04:37:33.156Z,20.40
2023-04-15T04:40:01.526Z,19.80
2023-04-15T04:42:31.714Z,20.25
2023-04-15T04:44:59.878Z,22.67
2023-04-15T04:47:28.109Z,20.98
2023-04-15T04:49:56.246Z,19.75
2023-04-15T04:52:24.428Z,21.75
2023-04-15T04:54:52.610Z,22.05
2023-04-15T04:57:20.795Z,21.00
2023-04-15T04:59:50.401Z,21.92
2023-04-15T05:02:18.953Z,21.15
2023-04-15T05:04:47.291Z,21.25
2023-04-15T05:07:16.031Z,21.85
2023-04-15T05:09:44.189Z,21.10
2023-04-15T05:12:15.104Z,21.73
2023-04-15T05:14:43.674Z,21.20
2023-04-15T05:17:13.664Z,21.00
2023-04-15T05:19:41.940Z,19.25
2023-04-15T05:22:10.137Z,21.60
2023-04-15T05:24:38.561Z,19.73
2023-04-15T05:27:08.471Z,21.05
2023-04-15T05:29:36.670Z,18.85
2023-04-15T05:32:04.919Z,19.10
2023-04-15T05:34:34.564Z,18.30
2023-04-15T05:37:02.803Z,19.90
2023-04-15T05:39:32.590Z,18.83
2023-04-15T05:42:01.005Z,20.17
2023-04-15T05:44:29.135Z,18.70
2023-04-15T05:46:57.378Z,17.98
2023-04-15T05:49:25.533Z,18.33
2023-04-15T05:51:55.308Z,17.48
2023-04-15T05:54:23.707Z,17.20
2023-04-15T05:56:52.069Z,16.75
2023-04-15T05:59:20.240Z,17.75
2023-04-15T06:01:48.573Z,17.33
2023-04-15T06:04:17.604Z,16.92
2023-04-15T06:06:46.164Z,16.23
2023-04-15T06:09:15.944Z,16.67
2023-04-15T06:11:44.646Z,16.60
2023-04-15T06:14:12.827Z,16.95
2023-04-15T06:16:41.266Z,16.58
2023-04-15T06:19:09.745Z,16.38
2023-04-15T06:21:38.112Z,16.13
2023-04-15T06:24:06.689Z,14.82
2023-04-15T06:26:36.340Z,15.43
2023-04-15T06:29:04.711Z,14.40
2023-04-15T06:31:32.975Z,14.30
2023-04-15T06:34:01.120Z,14.55
2023-04-15T06:36:29.474Z,13.27
2023-04-15T06:38:58.043Z,13.75
2023-04-15T06:41:26.625Z,13.25
2023-04-15T06:43:56.278Z,12.65
2023-04-15T06:46:24.615Z,12.63
2023-04-15T06:48:52.896Z,12.48
2023-04-15T06:51:21.181Z,13.02
2023-04-15T06:53:49.627Z,12.48
2023-04-15T06:56:17.826Z,11.95
2023-04-15T06:58:46.359Z,11.57
2023-04-15T07:01:16.000Z,11.90
2023-04-15T07:03:44.401Z,11.18
2023-04-15T07:06:13.226Z,11.20
2023-04-15T07:08:41.904Z,11.50
2023-04-15T07:11:10.321Z,11.10
2023-04-15T07:13:38.563Z,10.48
2023-04-15T07:16:07.327Z,10.40
2023-04-15T07:18:36.929Z,10.40
2023-04-15T07:21:05.604Z,10.90
2023-04-15T07:23:33.774Z,10.35
2023-04-15T07:26:02.485Z,10.13
2023-04-15T07:28:30.858Z,9.90
2023-04-15T07:30:59.420Z,10.02
2023-04-15T07:33:27.768Z,10.38
2023-04-15T07:35:57.626Z,9.93
2023-04-15T07:38:25.918Z,10.80
2023-04-15T07:40:54.265Z,9.68
2023-04-15T07:43:22.687Z,10.73
2023-04-15T07:45:51.260Z,10.48
2023-04-15T07:48:19.617Z,10.32
2023-04-15T07:50:48.166Z,10.93
2023-04-15T07:53:18.126Z,11.82
2023-04-15T07:55:46.545Z,10.68
2023-04-15T07:58:14.763Z,10.45
2023-04-15T08:00:43.080Z,11.02
2023-04-15T08:03:11.694Z,10.35
2023-04-15T08:05:39.949Z,11.00
2023-04-15T08:08:08.340Z,10.45
2023-04-15T08:10:39.076Z,11.00
2023-04-15T08:13:07.758Z,11.40
2023-04-15T08:15:36.136Z,11.15
2023-04-15T08:18:04.452Z,11.07
2023-04-15T08:20:32.713Z,11.65
2023-04-15T08:23:02.195Z,11.52
2023-04-15T08:25:30.611Z,11.02
2023-04-15T08:28:00.742Z,11.40
2023-04-15T08:30:29.033Z,11.05
2023-04-15T08:32:57.222Z,11.40
2023-04-15T08:35:25.478Z,11.77
2023-04-15T08:37:53.740Z,11.48
2023-04-15T08:40:26.795Z,11.23
2023-04-15T08:42:58.716Z,11.60
2023-04-15T08:45:28.326Z,11.48
2023-04-15T08:47:58.355Z,11.07
2023-04-15T08:50:27.769Z,11.30
2023-04-15T08:52:57.023Z,10.90
2023-04-15T08:55:26.372Z,11.55
2023-04-15T08:57:54.621Z,12.15
2023-04-15T09:00:23.590Z,11.45
2023-04-15T09:02:53.978Z,11.95
2023-04-15T09:05:23.050Z,11.75
2023-04-15T09:07:52.132Z,12.00
2023-04-15T09:10:20.591Z,11.98
2023-04-15T09:12:48.817Z,10.45
2023-04-15T09:15:17.610Z,11.93
2023-04-15T09:17:46.810Z,11.55
2023-04-15T09:20:18.905Z,11.50
2023-04-15T09:22:48.988Z,10.68
2023-04-15T09:25:33.478Z,11.57
2023-04-15T09:28:04.211Z,11.43
2023-04-15T09:30:32.757Z,10.90
2023-04-15T09:33:02.875Z,11.05
2023-04-15T09:35:32.471Z,11.65
2023-04-15T09:38:05.454Z,11.10
2023-04-15T09:40:35.191Z,10.95
2023-04-15T09:43:05.521Z,11.57
2023-04-15T09:45:42.571Z,10.88
2023-04-15T09:48:20.821Z,10.52
2023-04-15T09:50:51.148Z,10.88
2023-04-15T09:53:20.546Z,11.18
2023-04-15T09:55:52.052Z,10.93
2023-04-15T09:58:21.360Z,10.45
2023-04-15T10:00:50.710Z,10.57
2023-04-15T10:03:22.177Z,10.70
2023-04-15T10:05:55.862Z,11.80
2023-04-15T10:08:28.159Z,10.27
2023-04-15T10:10:56.718Z,10.75
2023-04-15T10:13:28.448Z,10.35
2023-04-15T10:15:59.916Z,10.23
2023-04-15T10:18:29.695Z,10.00
2023-04-15T10:21:01.328Z,11.10
2023-04-15T10:23:29.926Z,11.02
2023-04-15T10:25:59.907Z,11.25
2023-04-15T10:28:28.490Z,11.82
2023-04-15T10:30:57.984Z,11.00
2023-04-15T10:33:28.314Z,11.43
2023-04-15T10:35:58.908Z,11.18
2023-04-15T10:38:35.129Z,11.90
2023-04-15T10:41:21.284Z,11.90
2023-04-15T10:43:55.031Z,11.60
2023-04-15T10:46:25.715Z,11.55
2023-04-15T10:48:55.520Z,11.30
2023-04-15T10:51:32.926Z,12.00
2023-04-15T10:54:01.586Z,12.25
2023-04-15T10:56:31.472Z,12.65
2023-04-15T10:59:02.058Z,11.88
2023-04-15T11:01:53.372Z,19.52
2023-04-15T11:04:53.673Z,12.38
2023-04-15T11:07:49.748Z,11.38
2023-04-15T11:10:51.492Z,11.95
2023-04-15T11:13:26.742Z,11.25
2023-04-15T11:15:59.282Z,11.60
2023-04-15T11:18:30.444Z,11.68
2023-04-15T11:21:00.163Z,10.70
2023-04-15T11:23:35.018Z,11.75
2023-04-15T11:26:05.609Z,10.55
2023-04-15T11:28:35.004Z,12.05
2023-04-15T11:31:10.754Z,11.75
2023-04-15T11:33:40.685Z,12.10
2023-04-15T11:36:09.189Z,11.07
2023-04-15T11:38:39.118Z,11.38
2023-04-15T11:41:07.812Z,12.05
2023-04-15T11:43:36.691Z,11.90
2023-04-15T11:46:05.448Z,10.30
2023-04-15T11:48:35.746Z,11.25
2023-04-15T11:51:05.108Z,10.90
2023-04-15T11:53:42.500Z,10.45
2023-04-15T11:56:12.020Z,10.02
2023-04-15T11:58:40.587Z,10.68
2023-04-15T12:01:09.161Z,10.35
2023-04-15T12:03:42.598Z,10.77
2023-04-15T12:06:17.752Z,9.60
2023-04-15T12:09:05.382Z,9.75
2023-04-15T12:11:41.760Z,10.00
2023-04-15T12:14:29.506Z,9.68
2023-04-15T12:17:04.542Z,10.60
2023-04-15T12:19:37.134Z,9.73
2023-04-15T12:22:06.776Z,10.50
2023-04-15T12:24:37.837Z,10.27
2023-04-15T12:27:07.026Z,10.68
2023-04-15T12:29:36.878Z,10.20
2023-04-15T12:32:10.131Z,10.25
2023-04-15T12:34:40.615Z,10.60
2023-04-15T12:37:10.584Z,10.48
2023-04-15T12:39:42.471Z,10.60
2023-04-15T12:42:11.824Z,10.23
2023-04-15T12:44:40.948Z,11.85
2023-04-15T12:47:10.683Z,11.48
2023-04-15T12:49:39.479Z,9.77
2023-04-15T12:52:08.383Z,9.80
2023-04-15T12:54:37.539Z,11.27
2023-04-15T12:57:07.910Z,10.30
2023-04-15T12:59:36.702Z,10.48
2023-04-15T13:02:05.571Z,9.70
2023-04-15T13:04:34.109Z,9.20
2023-04-15T13:07:03.116Z,10.02
2023-04-15T13:09:31.308Z,10.10
2023-04-15T13:11:59.669Z,10.18
2023-04-15T13:14:29.559Z,10.35
2023-04-15T13:16:58.078Z,9.88
2023-04-15T13:19:26.789Z,10.20
2023-04-15T13:21:55.496Z,10.43
2023-04-15T13:24:23.937Z,9.70
2023-04-15T13:26:52.399Z,9.90
2023-04-15T13:29:20.962Z,10.80
2023-04-15T13:31:51.067Z,10.00
2023-04-15T13:34:19.291Z,10.43
2023-04-15T13:36:48.167Z,9.90
2023-04-15T13:39:16.362Z,10.63
2023-04-15T13:41:44.589Z,9.93
2023-04-15T13:44:12.824Z,10.20
2023-04-15T13:46:42.037Z,9.52
2023-04-15T13:49:11.855Z,10.43
2023-04-15T13:51:40.694Z,10.20
2023-04-15T13:54:08.960Z,10.70
2023-04-15T13:56:37.075Z,10.43
2023-04-15T13:59:06.613Z,10.35
2023-04-15T14:01:36.238Z,10.98
2023-04-15T14:04:05.175Z,11.95
2023-04-15T14:06:35.145Z,11.32
2023-04-15T14:09:04.172Z,11.00
2023-04-15T14:11:32.784Z,11.20
2023-04-15T14:14:00.950Z,10.77
2023-04-15T14:16:29.416Z,10.73
2023-04-15T14:18:58.138Z,11.25
2023-04-15T14:21:26.415Z,11.70
2023-04-15T14:23:56.011Z,12.07
2023-04-15T14:26:24.358Z,11.48
2023-04-15T14:28:53.120Z,11.13
2023-04-15T14:31:21.443Z,10.52
2023-04-15T14:33:49.799Z,9.32
2023-04-15T14:36:18.038Z,9.30
2023-04-15T14:38:47.502Z,10.52
2023-04-15T14:41:18.104Z,11.38
2023-04-15T14:43:46.623Z,10.40
2023-04-15T14:46:15.429Z,11.25
2023-04-15T14:48:44.111Z,10.35
2023-04-15T14:51:12.330Z,10.73
2023-04-15T14:53:40.630Z,11.05
2023-04-15T14:56:09.133Z,12.05
2023-04-15T14:58:39.056Z,11.57
2023-04-15T15:01:07.333Z,10.90
2023-04-15T15:03:35.604Z,11.18
2023-04-15T15:06:03.756Z,11.77
2023-04-15T15:08:31.981Z,19.40
2023-04-15T15:11:00.219Z,12.10
2023-04-15T15:13:29.522Z,11.60
2023-04-15T15:15:59.600Z,11.68
2023-04-15T15:18:27.842Z,11.73
2023-04-15T15:20:56.089Z,10.07
2023-04-15T15:23:24.360Z,11.18
2023-04-15T15:25:52.694Z,10.95
2023-04-15T15:28:22.035Z,10.70
2023-04-15T15:30:50.401Z,11.07
2023-04-15T15:33:20.782Z,10.23
2023-04-15T15:35:49.081Z,10.63
2023-04-15T15:38:17.312Z,11.05
2023-04-15T15:40:45.422Z,10.15
2023-04-15T15:43:13.650Z,10.48
2023-04-15T15:45:42.179Z,11.05
2023-04-15T15:48:10.405Z,19.05
2023-04-15T15:50:40.024Z,11.60
2023-04-15T15:53:08.705Z,10.50
2023-04-15T15:55:36.848Z,11.65
2023-04-15T15:58:05.063Z,22.00
2023-04-15T16:00:33.364Z,10.50
2023-04-15T16:03:07.322Z,10.45
2023-04-15T16:05:36.480Z,10.00
2023-04-15T16:08:06.542Z,10.07
2023-04-15T16:10:34.818Z,10.48
2023-04-15T16:13:03.842Z,10.52
2023-04-15T16:15:32.148Z,9.65
2023-04-15T16:18:00.441Z,9.57
2023-04-15T16:20:29.408Z,9.38
2023-04-15T16:22:58.311Z,9.40
2023-04-15T16:25:28.503Z,9.02
2023-04-15T16:28:01.466Z,9.45
2023-04-15T16:30:38.062Z,8.57
2023-04-15T16:33:06.701Z,7.78
2023-04-15T16:35:35.070Z,8.93
2023-04-15T16:38:03.555Z,8.27
2023-04-15T16:40:33.416Z,8.70
2023-04-15T16:43:01.756Z,8.13
2023-04-15T16:45:30.128Z,8.63
2023-04-15T16:47:58.443Z,8.40
2023-04-15T16:50:26.805Z,8.55
2023-04-15T16:52:55.310Z,8.20
2023-04-15T16:55:23.841Z,8.73
2023-04-15T16:58:02.230Z,7.80
2023-04-15T17:00:31.629Z,8.65
2023-04-15T17:03:00.209Z,8.20
2023-04-15T17:05:29.193Z,8.13
2023-04-15T17:07:57.432Z,8.35
2023-04-15T17:10:25.839Z,7.72
2023-04-15T17:12:57.426Z,7.63
2023-04-15T17:15:26.511Z,8.75
2023-04-15T17:17:54.918Z,8.30
2023-04-15T17:20:23.090Z,8.50
2023-04-15T17:22:51.279Z,8.55
2023-04-15T17:25:19.606Z,8.13
2023-04-15T17:27:47.883Z,8.30
2023-04-15T17:30:17.477Z,8.20
2023-04-15T17:32:46.191Z,7.70
2023-04-15T17:35:14.482Z,7.97
2023-04-15T17:37:42.970Z,7.97
2023-04-15T17:40:12.281Z,8.27
2023-04-15T17:42:40.645Z,8.40
2023-04-15T17:45:14.375Z,9.27
2023-04-15T17:47:44.142Z,8.70
2023-04-15T17:50:12.441Z,8.90
2023-04-15T17:52:40.795Z,9.32
2023-04-15T17:55:09.738Z,9.45
2023-04-15T17:57:38.206Z,8.77
2023-04-15T18:00:08.904Z,8.88
2023-04-15T18:02:41.319Z,11.20
2023-04-15T18:05:11.659Z,10.73
2023-04-15T18:07:40.061Z,10.40
2023-04-15T18:10:09.852Z,10.88
2023-04-15T18:12:38.071Z,11.30
2023-04-15T18:15:07.377Z,10.57
2023-04-15T18:17:35.939Z,11.27
2023-04-15T18:20:04.498Z,12.05
2023-04-15T18:22:34.208Z,11.82
2023-04-15T18:25:04.315Z,11.82
2023-04-15T18:27:33.240Z,13.25
2023-04-15T18:30:01.802Z,13.68
2023-04-15T18:32:32.595Z,14.20
2023-04-15T18:35:01.245Z,14.15
2023-04-15T18:37:30.455Z,13.57
2023-04-15T18:40:00.389Z,15.98
2023-04-15T18:42:28.892Z,13.75
2023-04-15T18:44:57.506Z,12.93
2023-04-15T18:47:27.752Z,13.45
2023-04-15T18:49:58.192Z,14.27
2023-04-15T18:52:26.722Z,15.15
2023-04-15T18:54:54.984Z,13.13
2023-04-15T18:57:30.766Z,14.80
2023-04-15T19:00:03.539Z,16.83
2023-04-15T19:02:32.023Z,15.85
2023-04-15T19:05:03.656Z,14.30
2023-04-15T19:07:31.924Z,14.80
2023-04-15T19:10:00.246Z,15.82
2023-04-15T19:12:29.961Z,16.85
2023-04-15T19:14:58.405Z,14.52
2023-04-15T19:17:26.672Z,14.07
2023-04-15T19:19:54.903Z,14.02
2023-04-15T19:22:23.309Z,14.02
2023-04-15T19:24:53.068Z,14.35
2023-04-15T19:27:21.342Z,16.65
2023-04-15T19:29:50.965Z,17.40
2023-04-15T19:32:19.234Z,16.10
2023-04-15T19:34:48.031Z,16.05
2023-04-15T19:37:16.548Z,17.17
2023-04-15T19:39:44.829Z,19.10
2023-04-15T19:42:13.017Z,17.05
2023-04-15T19:44:42.801Z,17.75
2023-04-15T19:47:12.707Z,18.27
2023-04-15T19:49:42.108Z,17.40
2023-04-15T19:52:10.457Z,19.98
2023-04-15T19:54:38.702Z,18.83
2023-04-15T19:57:07.223Z,19.95
2023-04-15T19:59:35.676Z,18.67
2023-04-15T20:02:04.101Z,18.35
2023-04-15T20:04:34.041Z,18.48
2023-04-15T20:07:02.617Z,16.48
2023-04-15T20:09:30.792Z,17.30
2023-04-15T20:12:45.691Z,17.30
2023-04-15T20:14:47.350Z,18.35
2023-04-15T20:17:16.362Z,18.23
2023-04-15T20:19:45.970Z,16.95
2023-04-15T20:22:14.281Z,18.40
2023-04-15T20:24:42.573Z,16.05
2023-04-15T20:27:10.760Z,17.88
2023-04-15T20:29:38.951Z,16.85
2023-04-15T20:32:11.251Z,18.02
2023-04-15T20:34:40.506Z,17.17
2023-04-15T20:37:12.078Z,16.90
2023-04-15T20:39:41.312Z,17.17
2023-04-15T20:42:10.470Z,15.98
2023-04-15T20:44:39.731Z,18.00
2023-04-15T20:47:08.427Z,17.13
2023-04-15T20:49:37.738Z,17.77
2023-04-15T20:52:07.417Z,17.23
2023-04-15T20:54:37.003Z,17.25
2023-04-15T20:57:05.402Z,15.68
2023-04-15T20:59:34.856Z,17.88
2023-04-15T21:02:03.285Z,17.27
2023-04-15T21:04:31.643Z,17.15
2023-04-15T21:06:59.779Z,16.83
2023-04-15T21:09:27.969Z,18.58
2023-04-15T21:12:01.451Z,17.45
2023-04-15T21:14:30.551Z,19.73
2023-04-15T21:16:59.186Z,16.92
2023-04-15T21:19:27.436Z,15.88
2023-04-15T21:21:55.665Z,17.58
2023-04-15T21:24:23.852Z,16.27
2023-04-15T21:26:52.193Z,17.70
2023-04-15T21:29:21.857Z,16.80
2023-04-15T21:31:50.363Z,16.38
2023-04-15T21:34:19.002Z,16.83
2023-04-15T21:36:47.261Z,16.27
2023-04-15T21:39:15.645Z,14.95
2023-04-15T21:41:44.362Z,15.50
2023-04-15T21:44:14.586Z,14.82
2023-04-15T21:46:45.662Z,16.52
2023-04-15T21:49:14.627Z,15.52
2023-04-15T21:51:42.892Z,15.20
2023-04-15T21:54:11.207Z,15.68
2023-04-15T21:56:39.743Z,15.48
2023-04-15T21:59:08.054Z,16.65
2023-04-15T22:01:36.384Z,15.30
2023-04-15T22:04:07.498Z,16.27
2023-04-15T22:06:36.137Z,16.48
2023-04-15T22:09:04.652Z,16.15
2023-04-15T22:11:32.880Z,16.27
2023-04-15T22:14:01.322Z,16.35
2023-04-15T22:16:29.847Z,16.17
2023-04-15T22:18:58.132Z,17.80
2023-04-15T22:21:27.842Z,15.90
2023-04-15T22:24:31.843Z,17.35
2023-04-15T22:26:44.306Z,15.60
2023-04-15T22:29:12.745Z,16.63
2023-04-15T22:31:41.026Z,17.08
2023-04-15T22:34:09.561Z,16.40
2023-04-15T22:36:39.219Z,17.67
2023-04-15T22:39:07.744Z,17.48
2023-04-15T22:41:36.082Z,17.63
2023-04-15T22:44:05.736Z,18.10
2023-04-15T22:46:33.978Z,17.30
2023-04-15T22:49:02.245Z,17.42
2023-04-15T22:51:31.490Z,17.92
2023-04-15T22:54:01.420Z,18.20
2023-04-15T22:56:29.875Z,18.27
2023-04-15T22:58:58.111Z,18.65
2023-04-15T23:01:26.558Z,18.92
2023-04-15T23:03:55.812Z,18.65
2023-04-15T23:06:27.078Z,19.70
2023-04-15T23:08:56.125Z,20.45
2023-04-15T23:11:25.649Z,19.38
2023-04-15T23:13:54.136Z,18.40
2023-04-15T23:16:24.799Z,19.58
2023-04-15T23:18:53.047Z,21.65
2023-04-15T23:21:21.965Z,19.95
2023-04-15T23:23:51.097Z,20.77
2023-04-15T23:26:19.304Z,19.52
2023-04-15T23:28:48.921Z,20.50
2023-04-15T23:31:17.068Z,19.55
2023-04-15T23:33:45.299Z,19.88
2023-04-15T23:36:13.519Z,19.17
2023-04-15T23:38:41.772Z,19.83
2023-04-15T23:41:11.829Z,19.15
2023-04-15T23:43:40.065Z,18.98
2023-04-15T23:46:09.585Z,20.02
2023-04-15T23:48:37.759Z,19.13
2023-04-15T23:51:06.625Z,18.80
2023-04-15T23:53:35.058Z,18.80
2023-04-15T23:56:03.281Z,18.60
2023-04-15T23:58:33.994Z,19.15
